Time;durP1;ratioP1;P1;durP2;ratioP2;P2;SDS_P1;SDS_P2;PMS_P1;PMS_P2;Temp;Humidity;BMP_temperature;BMP_pressure;BME280_temperature;BME280_humidity;BME280_pressure;Samples;Min_cycle;Max_cycle;Signal;HPM_P1;HPM_P2
2023/05/18 00:01:41;;;;;;;;;;;;;;;;;;5091051;27;19916;-67
2023/05/18 00:04:07;;;;;;;;;;;;;;;;;;5091371;28;20016;-68
2023/05/18 00:07:02;;;;;;;;;;;;;;;;;;5112119;27;19916;-68
2023/05/18 00:09:28;;;;;;;;;;;;;;;;;;5111671;28;20253;-67
2023/05/18 00:15:10;;;;;;;;;;;;;;;;;;5111556;27;19923;-68
2023/05/18 00:18:26;;;;;;;;;;;;;;;;;;5111801;27;20007;-67
2023/05/18 00:20:57;;;;;;;;;;;;;;;;;;5111232;28;19912;-67
2023/05/18 00:23:23;;;;;;;;;;;;;;;;;;5111636;28;20292;-67
2023/05/18 00:25:49;;;;;;;;;;;;;;;;;;5111620;28;19961;-67
2023/05/18 00:28:16;;;;;;;;;;;;;;;;;;5111176;28;19908;-67
2023/05/18 00:32:03;;;;;;;;;;;;;;;;;;5112359;27;20364;-67
2023/05/18 00:36:32;;;;;;;;;;;;;;;;;;5111522;27;20283;-67
2023/05/18 00:38:58;;;;;;;;;;;;;;;;;;5110515;28;19998;-67
2023/05/18 00:41:25;;;;;;;;;;;;;;;;;;5111647;28;19908;-67
2023/05/18 00:51:29;;;;;;;;;;;;;;;;;;5111813;27;19916;-67
2023/05/18 00:54:43;;;;;;;;;;;;;;;;;;5091464;27;20261;-67
2023/05/18 00:57:09;;;;;;;;;;;;;;;;;;5091049;28;20000;-67
2023/05/18 00:59:35;;;;;;;;;;;;;;;;;;5091285;28;19994;-67
2023/05/18 01:02:01;;;;;;;;;;;;;;;;;;5091456;28;19909;-67
2023/05/18 01:04:30;;;;;;;;;;;;;;;;;;5090804;28;19912;-67
2023/05/18 01:09:20;;;;;;;;;;;;;;;;;;5174002;27;19911;-68
2023/05/18 01:14:21;;;;;;;;;;;;;;;;;;5091991;27;19916;-67
2023/05/18 01:16:47;;;;;;;;;;;;;;;;;;5091336;28;19995;-67
2023/05/18 01:19:15;;;;;;;;;;;;;;;;;;5089699;28;19954;-67
2023/05/18 01:22:28;;;;;;;;;;;;;;;;;;5092211;27;19923;-67
2023/05/18 01:24:54;;;;;;;;;;;;;;;;;;5090991;28;19958;-67
2023/05/18 01:31:10;;;;;;;;;;;;;;;;;;5112099;27;19916;-67
2023/05/18 01:36:35;;;;;;;;;;;;;;;;;;5091508;27;20299;-67
2023/05/18 01:39:01;;;;;;;;;;;;;;;;;;5090960;28;19999;-67
2023/05/18 01:41:28;;;;;;;;;;;;;;;;;;5089970;28;20369;-67
2023/05/18 01:45:13;;;;;;;;;;;;;;;;;;5091299;28;19913;-67
2023/05/18 01:49:28;;;;;;;;;;;;;;;;;;5112535;27;20382;-67
2023/05/18 01:52:13;;;;;;;;;;;;;;;;;;5091280;27;20284;-67
2023/05/18 01:54:39;;;;;;;;;;;;;;;;;;5091270;28;19995;-67
2023/05/18 01:57:05;;;;;;;;;;;;;;;;;;5091274;28;19932;-67
2023/05/18 01:59:31;;;;;;;;;;;;;;;;;;5090946;28;20372;-67
2023/05/18 02:01:57;;;;;;;;;;;;;;;;;;5091184;28;20006;-67
2023/05/18 02:04:23;;;;;;;;;;;;;;;;;;5091431;28;19912;-67
2023/05/18 02:13:21;;;;;;;;;;;;;;;;;;5111856;27;20284;-67
2023/05/18 02:18:25;;;;;;;;;;;;;;;;;;5112087;27;19922;-68
2023/05/18 02:20:51;;;;;;;;;;;;;;;;;;5111510;28;19911;-68
2023/05/18 02:28:23;;;;;;;;;;;;;;;;;;5091378;28;19912;-67
2023/05/18 02:30:49;;;;;;;;;;;;;;;;;;5091301;28;19912;-67
2023/05/18 02:33:16;;;;;;;;;;;;;;;;;;5091394;28;20372;-68
2023/05/18 02:35:42;;;;;;;;;;;;;;;;;;5090861;28;19962;-67
2023/05/18 02:38:08;;;;;;;;;;;;;;;;;;5091234;28;19916;-67
2023/05/18 02:42:22;;;;;;;;;;;;;;;;;;5111390;27;19916;-67
2023/05/18 02:44:48;;;;;;;;;;;;;;;;;;5110446;28;19995;-67
2023/05/18 02:47:14;;;;;;;;;;;;;;;;;;5111556;28;19960;-67
2023/05/18 02:49:40;;;;;;;;;;;;;;;;;;5111180;28;19912;-67
2023/05/18 02:53:50;;;;;;;;;;;;;;;;;;5112342;27;19923;-67
2023/05/18 02:56:16;;;;;;;;;;;;;;;;;;5111361;28;19912;-67
2023/05/18 02:58:42;;;;;;;;;;;;;;;;;;5111931;28;19914;-67
2023/05/18 03:01:08;;;;;;;;;;;;;;;;;;5111618;28;19998;-67
2023/05/18 03:03:57;;;;;;;;;;;;;;;;;;5091151;27;19939;-67
2023/05/18 03:06:25;;;;;;;;;;;;;;;;;;5091575;28;20432;-67
2023/05/18 03:08:53;;;;;;;;;;;;;;;;;;5091269;28;19962;-67
2023/05/18 03:11:19;;;;;;;;;;;;;;;;;;5089557;28;20343;-67
2023/05/18 03:14:38;;;;;;;;;;;;;;;;;;5153124;27;19993;-67
2023/05/18 03:21:24;;;;;;;;;;;;;;;;;;5091476;27;19919;-67
2023/05/18 03:23:49;;;;;;;;;;;;;;;;;;5091112;28;20002;-67
2023/05/18 03:26:17;;;;;;;;;;;;;;;;;;5089941;28;19935;-69
2023/05/18 03:28:43;;;;;;;;;;;;;;;;;;5091559;28;19991;-68
2023/05/18 03:31:09;;;;;;;;;;;;;;;;;;5090828;28;19958;-67
2023/05/18 03:35:53;;;;;;;;;;;;;;;;;;5112292;27;19916;-67
2023/05/18 03:38:19;;;;;;;;;;;;;;;;;;5111538;28;19919;-67
2023/05/18 03:41:43;;;;;;;;;;;;;;;;;;5152971;27;19998;-67
2023/05/18 03:44:09;;;;;;;;;;;;;;;;;;5152876;27;19957;-67
2023/05/18 03:47:53;;;;;;;;;;;;;;;;;;5112309;27;19912;-67
2023/05/18 03:50:19;;;;;;;;;;;;;;;;;;5111877;28;20007;-67
2023/05/18 03:54:58;;;;;;;;;;;;;;;;;;5091568;28;19922;-67
2023/05/18 03:57:24;;;;;;;;;;;;;;;;;;5091343;28;19999;-67
2023/05/18 04:05:32;;;;;;;;;;;;;;;;;;5092004;27;19923;-67
2023/05/18 04:07:58;;;;;;;;;;;;;;;;;;5090949;28;19955;-67
2023/05/18 04:10:25;;;;;;;;;;;;;;;;;;5091306;28;19909;-67
2023/05/18 04:12:51;;;;;;;;;;;;;;;;;;5090934;28;20003;-67
2023/05/18 04:15:52;;;;;;;;;;;;;;;;;;5111808;27;19912;-67
2023/05/18 04:20:48;;;;;;;;;;;;;;;;;;5152987;27;19920;-67
2023/05/18 04:23:14;;;;;;;;;;;;;;;;;;5152973;27;20338;-67
2023/05/18 04:27:22;;;;;;;;;;;;;;;;;;5111779;27;19919;-67
2023/05/18 04:29:48;;;;;;;;;;;;;;;;;;5111730;28;19994;-67
2023/05/18 04:32:17;;;;;;;;;;;;;;;;;;5111625;28;19908;-67
2023/05/18 04:36:49;;;;;;;;;;;;;;;;;;5132568;27;19916;-66
2023/05/18 04:39:15;;;;;;;;;;;;;;;;;;5132564;28;20010;-67
2023/05/18 04:41:43;;;;;;;;;;;;;;;;;;5131950;28;20002;-67
2023/05/18 04:46:05;;;;;;;;;;;;;;;;;;5111500;27;20296;-67
2023/05/18 04:50:04;;;;;;;;;;;;;;;;;;5090177;27;20292;-67
2023/05/18 04:54:44;;;;;;;;;;;;;;;;;;5110066;27;19938;-67
2023/05/18 04:57:11;;;;;;;;;;;;;;;;;;5109117;28;19920;-67
2023/05/18 04:59:37;;;;;;;;;;;;;;;;;;5109520;28;19930;-67
2023/05/18 05:02:03;;;;;;;;;;;;;;;;;;5109083;28;19908;-67
2023/05/18 05:04:29;;;;;;;;;;;;;;;;;;5109777;28;19953;-67
2023/05/18 05:08:12;;;;;;;;;;;;;;;;;;5089424;27;19916;-67
2023/05/18 05:10:38;;;;;;;;;;;;;;;;;;5090928;28;19934;-67
2023/05/18 05:13:04;;;;;;;;;;;;;;;;;;5091092;28;19908;-67
2023/05/18 05:15:30;;;;;;;;;;;;;;;;;;5091141;28;19951;-67
2023/05/18 05:17:56;;;;;;;;;;;;;;;;;;5089541;28;19915;-67
2023/05/18 05:20:22;;;;;;;;;;;;;;;;;;5086610;28;20395;-67
2023/05/18 05:22:48;;;;;;;;;;;;;;;;;;5087464;28;20248;-68
2023/05/18 05:25:14;;;;;;;;;;;;;;;;;;5082259;28;19916;-67
2023/05/18 05:27:40;;;;;;;;;;;;;;;;;;5081563;28;19947;-66
2023/05/18 05:30:06;;;;;;;;;;;;;;;;;;5077596;28;19916;-66
2023/05/18 05:34:33;;;;;;;;;;;;;;;;;;5101431;27;19923;-67
2023/05/18 05:36:59;;;;;;;;;;;;;;;;;;5089049;28;19912;-66
2023/05/18 05:39:25;;;;;;;;;;;;;;;;;;5087787;28;19912;-66
2023/05/18 05:41:51;;;;;;;;;;;;;;;;;;5086879;28;20432;-66
2023/05/18 05:47:45;;;;;;;;;;;;;;;;;;5099758;27;19917;-64
2023/05/18 05:50:11;;;;;;;;;;;;;;;;;;5096693;28;20003;-65
2023/05/18 05:52:37;;;;;;;;;;;;;;;;;;5106331;28;20007;-65
2023/05/18 05:55:18;;;;;;;;;;;;;;;;;;5056729;27;19919;-64
2023/05/18 05:57:44;;;;;;;;;;;;;;;;;;5048272;28;20335;-65
2023/05/18 06:02:43;;;;;;;;;;;;;;;;;;5170334;27;19919;-64
2023/05/18 06:05:09;;;;;;;;;;;;;;;;;;5172960;27;19911;-64
2023/05/18 06:10:01;;;;;;;;;;;;;;;;;;5084696;28;19927;-64
2023/05/18 06:12:27;;;;;;;;;;;;;;;;;;5082577;28;19913;-65
2023/05/18 06:14:56;;;;;;;;;;;;;;;;;;5069213;28;19920;-64
2023/05/18 06:20:08;;;;;;;;;;;;;;;;;;5086585;27;19921;-65
2023/05/18 06:25:07;;;;;;;;;;;;;;;;;;5068277;28;19917;-64
2023/05/18 06:27:33;;;;;;;;;;;;;;;;;;5050986;28;19917;-65
2023/05/18 06:29:59;;;;;;;;;;;;;;;;;;5051959;28;19920;-64
2023/05/18 06:34:44;;;;;;;;;;;;;;;;;;5104495;27;20012;-64
2023/05/18 06:37:56;;;;;;;;;;;;;;;;;;5146588;27;19911;-65
2023/05/18 06:40:22;;;;;;;;;;;;;;;;;;5147835;27;19918;-65
2023/05/18 06:50:02;;;;;;;;;;;;;;;;;;5101138;27;19928;-65
2023/05/18 06:52:28;;;;;;;;;;;;;;;;;;5097656;28;20360;-66
2023/05/18 06:56:35;;;;;;;;;;;;;;;;;;5028555;27;19921;-65
2023/05/18 06:59:01;;;;;;;;;;;;;;;;;;5026552;28;19914;-64
2023/05/18 07:01:26;;;;;;;;;;;;;;;;;;5025923;27;19924;-66
2023/05/18 07:04:06;;;;;;;;;;;;;;;;;;5081139;27;19925;-66
2023/05/18 07:06:32;;;;;;;;;;;;;;;;;;5081509;28;19936;-66
2023/05/18 07:14:52;;;;;;;;;;;;;;;;;;5061962;28;19917;-66
2023/05/18 07:18:08;;;;;;;;;;;;;;;;;;5119600;27;19928;-66
2023/05/18 07:20:34;;;;;;;;;;;;;;;;;;5096124;28;20490;-66
2023/05/18 07:25:10;;;;;;;;;;;;;;;;;;5037417;28;20270;-67
2023/05/18 07:27:36;;;;;;;;;;;;;;;;;;5050521;28;20368;-66
2023/05/18 07:36:43;;;;;;;;;;;;;;;;;;5107544;27;19916;-65
2023/05/18 07:41:52;;;;;;;;;;;;;;;;;;5085480;27;19923;-65
2023/05/18 07:45:12;;;;;;;;;;;;;;;;;;5085272;27;19917;-64
2023/05/18 07:52:05;;;;;;;;;;;;;;;;;;5123184;27;19924;-64
2023/05/18 07:55:23;;;;;;;;;;;;;;;;;;5075144;27;19923;-64
2023/05/18 07:58:09;;;;;;;;;;;;;;;;;;5120324;27;20322;-65
2023/05/18 08:03:30;;;;;;;;;;;;;;;;;;5119168;27;19916;-65
2023/05/18 08:05:56;;;;;;;;;;;;;;;;;;5110117;28;20007;-65
2023/05/18 08:09:17;;;;;;;;;;;;;;;;;;5079770;27;19920;-63
2023/05/18 08:11:43;;;;;;;;;;;;;;;;;;5070799;28;20071;-64
2023/05/18 08:14:10;;;;;;;;;;;;;;;;;;5059533;28;19913;-65
2023/05/18 08:19:19;;;;;;;;;;;;;;;;;;5091823;27;19920;-65
2023/05/18 08:21:45;;;;;;;;;;;;;;;;;;5073718;28;19913;-65
2023/05/18 08:27:18;;;;;;;;;;;;;;;;;;5089058;27;19916;-66
2023/05/18 08:29:45;;;;;;;;;;;;;;;;;;5086104;28;19916;-63
2023/05/18 08:33:15;;;;;;;;;;;;;;;;;;5103638;27;19924;-63
2023/05/18 08:36:51;;;;;;;;;;;;;;;;;;5086539;27;19917;-64
2023/05/18 08:39:17;;;;;;;;;;;;;;;;;;5083195;28;20835;-65
2023/05/18 08:41:43;;;;;;;;;;;;;;;;;;5086416;28;19916;-65
2023/05/18 08:44:09;;;;;;;;;;;;;;;;;;5075480;28;19919;-65
2023/05/18 08:46:35;;;;;;;;;;;;;;;;;;5086902;28;19995;-65
2023/05/18 08:49:02;;;;;;;;;;;;;;;;;;5086575;28;19954;-65
2023/05/18 08:53:32;;;;;;;;;;;;;;;;;;5088249;28;20288;-64
2023/05/18 08:55:58;;;;;;;;;;;;;;;;;;5074213;28;19965;-65
2023/05/18 08:58:24;;;;;;;;;;;;;;;;;;5069868;28;19913;-65
2023/05/18 09:00:53;;;;;;;;;;;;;;;;;;5061900;28;19917;-66
2023/05/18 09:05:51;;;;;;;;;;;;;;;;;;5077494;27;19924;-64
2023/05/18 09:08:53;;;;;;;;;;;;;;;;;;5123417;27;19915;-65
2023/05/18 09:11:53;;;;;;;;;;;;;;;;;;5149888;27;19918;-63
2023/05/18 09:14:24;;;;;;;;;;;;;;;;;;5149667;27;19998;-63
2023/05/18 09:16:50;;;;;;;;;;;;;;;;;;5117405;27;20325;-65
2023/05/18 09:26:43;;;;;;;;;;;;;;;;;;5069108;28;20288;-63
2023/05/18 09:29:09;;;;;;;;;;;;;;;;;;5044383;28;19914;-65
2023/05/18 09:31:35;;;;;;;;;;;;;;;;;;5041651;28;19921;-65
2023/05/18 09:34:02;;;;;;;;;;;;;;;;;;5040743;28;19913;-65
2023/05/18 09:36:31;;;;;;;;;;;;;;;;;;5048846;28;19939;-65
2023/05/18 09:38:57;;;;;;;;;;;;;;;;;;5051045;28;19917;-65
2023/05/18 09:41:23;;;;;;;;;;;;;;;;;;5052967;28;19913;-65
2023/05/18 09:44:38;;;;;;;;;;;;;;;;;;5150437;27;19920;-65
2023/05/18 09:47:04;;;;;;;;;;;;;;;;;;5151150;27;19922;-66
2023/05/18 09:49:30;;;;;;;;;;;;;;;;;;5150431;27;20332;-67
2023/05/18 09:51:56;;;;;;;;;;;;;;;;;;5151348;27;19907;-68
2023/05/18 09:54:22;;;;;;;;;;;;;;;;;;5138764;27;19961;-65
2023/05/18 09:56:48;;;;;;;;;;;;;;;;;;5128264;28;20322;-65
2023/05/18 10:08:44;;;;;;;;;;;;;;;;;;5090329;28;20031;-66
2023/05/18 10:13:05;;;;;;;;;;;;;;;;;;5136841;27;20401;-66
2023/05/18 10:18:10;;;;;;;;;;;;;;;;;;5078061;27;19942;-66
2023/05/18 10:20:39;;;;;;;;;;;;;;;;;;5079701;28;19928;-66
2023/05/18 10:29:36;;;;;;;;;;;;;;;;;;5087702;27;19921;-65
2023/05/18 10:32:02;;;;;;;;;;;;;;;;;;5087481;28;19919;-65
2023/05/18 10:34:28;;;;;;;;;;;;;;;;;;5088327;28;19909;-66
2023/05/18 10:36:54;;;;;;;;;;;;;;;;;;5083743;28;19919;-65
2023/05/18 10:39:21;;;;;;;;;;;;;;;;;;5088892;28;19956;-65
2023/05/18 10:41:47;;;;;;;;;;;;;;;;;;5088512;28;20011;-64
2023/05/18 10:46:32;;;;;;;;;;;;;;;;;;5070079;28;19935;-65
2023/05/18 10:56:14;;;;;;;;;;;;;;;;;;5148819;27;19914;-66
2023/05/18 11:00:53;;;;;;;;;;;;;;;;;;5088253;27;19965;-64
2023/05/18 11:07:41;;;;;;;;;;;;;;;;;;5087550;27;19916;-65
2023/05/18 11:10:07;;;;;;;;;;;;;;;;;;5086746;28;19934;-65
2023/05/18 11:13:46;;;;;;;;;;;;;;;;;;5085261;27;19926;-67
2023/05/18 11:16:12;;;;;;;;;;;;;;;;;;5087120;28;19912;-66
2023/05/18 11:18:38;;;;;;;;;;;;;;;;;;5087466;28;19912;-65
2023/05/18 11:26:41;;;;;;;;;;;;;;;;;;5105083;27;19916;-65
2023/05/18 11:32:15;;;;;;;;;;;;;;;;;;5108827;27;20030;-66
2023/05/18 11:36:49;;;;;;;;;;;;;;;;;;5135139;27;19926;-65
2023/05/18 11:41:33;;;;;;;;;;;;;;;;;;5088373;28;19938;-66
2023/05/18 11:45:09;;;;;;;;;;;;;;;;;;5086556;28;19927;-66
2023/05/18 11:47:35;;;;;;;;;;;;;;;;;;5068389;28;19913;-67
2023/05/18 11:51:30;;;;;;;;;;;;;;;;;;5111216;27;20028;-65
2023/05/18 11:56:16;;;;;;;;;;;;;;;;;;5097458;27;20367;-66
2023/05/18 11:58:41;;;;;;;;;;;;;;;;;;5108737;28;19912;-65
2023/05/18 12:02:30;;;;;;;;;;;;;;;;;;5107643;27;19924;-66
2023/05/18 12:06:17;;;;;;;;;;;;;;;;;;5100577;27;19920;-66
2023/05/18 12:08:43;;;;;;;;;;;;;;;;;;5092701;28;19965;-65
2023/05/18 12:11:09;;;;;;;;;;;;;;;;;;5090093;28;19920;-65
2023/05/18 12:15:31;;;;;;;;;;;;;;;;;;5147385;27;19911;-65
2023/05/18 12:17:57;;;;;;;;;;;;;;;;;;5139962;27;20010;-64
2023/05/18 12:20:56;;;;;;;;;;;;;;;;;;5138387;27;19918;-64
2023/05/18 12:25:44;;;;;;;;;;;;;;;;;;5109591;27;19916;-67
2023/05/18 12:29:18;;;;;;;;;;;;;;;;;;5110515;27;20384;-69
2023/05/18 12:32:19;;;;;;;;;;;;;;;;;;5129964;27;19912;-67
2023/05/18 12:34:45;;;;;;;;;;;;;;;;;;5129762;27;19911;-67
2023/05/18 12:37:11;;;;;;;;;;;;;;;;;;5129578;27;20243;-67
2023/05/18 12:40:27;;;;;;;;;;;;;;;;;;5129867;27;19919;-68
2023/05/18 12:46:18;;;;;;;;;;;;;;;;;;5089751;27;19939;-68
2023/05/18 12:51:18;;;;;;;;;;;;;;;;;;5090504;28;19919;-68
2023/05/18 12:54:44;;;;;;;;;;;;;;;;;;5111326;27;19916;-67
2023/05/18 12:57:59;;;;;;;;;;;;;;;;;;5073734;28;19921;-68
2023/05/18 13:02:51;;;;;;;;;;;;;;;;;;5068215;28;20296;-68
2023/05/18 13:07:38;;;;;;;;;;;;;;;;;;5087421;27;19935;-69
2023/05/18 13:10:04;;;;;;;;;;;;;;;;;;5088580;28;19946;-69
2023/05/18 13:14:11;;;;;;;;;;;;;;;;;;5088681;28;19912;-69
2023/05/18 13:20:20;;;;;;;;;;;;;;;;;;5109939;27;20292;-69
2023/05/18 13:22:46;;;;;;;;;;;;;;;;;;5109253;28;19999;-68
2023/05/18 13:25:12;;;;;;;;;;;;;;;;;;5109748;28;20003;-69
2023/05/18 13:27:38;;;;;;;;;;;;;;;;;;5108451;28;19912;-69
2023/05/18 13:30:04;;;;;;;;;;;;;;;;;;5108868;28;19932;-69
2023/05/18 13:33:50;;;;;;;;;;;;;;;;;;5089501;27;19919;-68
2023/05/18 13:36:16;;;;;;;;;;;;;;;;;;5090594;28;19912;-68
2023/05/18 13:39:50;;;;;;;;;;;;;;;;;;5091755;28;20281;-68
2023/05/18 13:42:19;;;;;;;;;;;;;;;;;;5091916;28;19918;-68
2023/05/18 13:48:29;;;;;;;;;;;;;;;;;;5153468;27;19915;-68
2023/05/18 13:50:55;;;;;;;;;;;;;;;;;;5152495;27;19911;-68
2023/05/18 13:55:09;;;;;;;;;;;;;;;;;;5112355;27;20376;-67
2023/05/18 14:02:35;;;;;;;;;;;;;;;;;;5111896;27;19916;-68
2023/05/18 14:05:02;;;;;;;;;;;;;;;;;;5111371;28;19999;-68
2023/05/18 14:11:40;;;;;;;;;;;;;;;;;;5173526;27;19919;-68
2023/05/18 14:17:43;;;;;;;;;;;;;;;;;;5091074;27;19939;-67
2023/05/18 14:25:11;;;;;;;;;;;;;;;;;;5091523;27;19923;-68
2023/05/18 14:27:37;;;;;;;;;;;;;;;;;;5091443;28;20007;-66
2023/05/18 14:30:04;;;;;;;;;;;;;;;;;;5091265;28;19919;-68
2023/05/18 14:32:31;;;;;;;;;;;;;;;;;;5090955;28;20315;-68
2023/05/18 14:34:57;;;;;;;;;;;;;;;;;;5091421;28;20427;-68
2023/05/18 14:43:41;;;;;;;;;;;;;;;;;;5091924;27;19928;-68
2023/05/18 14:50:59;;;;;;;;;;;;;;;;;;5091390;27;19923;-68
2023/05/18 14:53:25;;;;;;;;;;;;;;;;;;5090857;28;20007;-68
2023/05/18 14:57:10;;;;;;;;;;;;;;;;;;5111701;27;19916;-68
2023/05/18 15:00:04;;;;;;;;;;;;;;;;;;5091060;27;19919;-67
2023/05/18 15:04:47;;;;;;;;;;;;;;;;;;5091442;28;20385;-68
2023/05/18 15:08:44;;;;;;;;;;;;;;;;;;5152495;27;20005;-67
2023/05/18 15:13:33;;;;;;;;;;;;;;;;;;5153265;27;20010;-68
2023/05/18 15:16:00;;;;;;;;;;;;;;;;;;5152374;27;19919;-68
2023/05/18 15:19:52;;;;;;;;;;;;;;;;;;5091851;27;19917;-68
2023/05/18 15:23:11;;;;;;;;;;;;;;;;;;5091288;27;19913;-68
2023/05/18 15:28:12;;;;;;;;;;;;;;;;;;5091725;28;19921;-68
2023/05/18 15:33:11;;;;;;;;;;;;;;;;;;5152856;27;19922;-68
2023/05/18 15:35:38;;;;;;;;;;;;;;;;;;5152484;27;19912;-69
2023/05/18 15:38:04;;;;;;;;;;;;;;;;;;5152979;27;19998;-69
2023/05/18 15:44:34;;;;;;;;;;;;;;;;;;5173861;27;19915;-67
2023/05/18 15:47:00;;;;;;;;;;;;;;;;;;5173881;27;19918;-68
2023/05/18 15:49:26;;;;;;;;;;;;;;;;;;5173289;27;19907;-68
2023/05/18 15:53:12;;;;;;;;;;;;;;;;;;5173954;27;19915;-67
2023/05/18 15:55:37;;;;;;;;;;;;;;;;;;5173716;27;20287;-67
2023/05/18 16:02:14;;;;;;;;;;;;;;;;;;5152994;27;19916;-67
2023/05/18 16:08:34;;;;;;;;;;;;;;;;;;5112074;27;19922;-67
2023/05/18 16:11:14;;;;;;;;;;;;;;;;;;5091310;27;19922;-67
2023/05/18 16:17:42;;;;;;;;;;;;;;;;;;5091232;27;19916;-67
2023/05/18 16:20:08;;;;;;;;;;;;;;;;;;5090065;28;20395;-68
2023/05/18 16:22:34;;;;;;;;;;;;;;;;;;5091245;28;19969;-68
2023/05/18 16:25:00;;;;;;;;;;;;;;;;;;5091011;28;19930;-68
2023/05/18 16:27:26;;;;;;;;;;;;;;;;;;5091161;28;19909;-68
2023/05/18 16:29:53;;;;;;;;;;;;;;;;;;5091071;28;20007;-68
2023/05/18 16:34:56;;;;;;;;;;;;;;;;;;5090533;28;20299;-67
2023/05/18 16:40:56;;;;;;;;;;;;;;;;;;5091550;27;19923;-67
2023/05/18 16:47:00;;;;;;;;;;;;;;;;;;5090824;27;20411;-67
2023/05/18 16:50:19;;;;;;;;;;;;;;;;;;5091734;28;19922;-67
2023/05/18 16:52:45;;;;;;;;;;;;;;;;;;5090785;28;19912;-69
2023/05/18 16:55:11;;;;;;;;;;;;;;;;;;5091267;28;20004;-68
2023/05/18 16:57:38;;;;;;;;;;;;;;;;;;5091024;28;19932;-67
2023/05/18 17:00:07;;;;;;;;;;;;;;;;;;5089399;28;20003;-68
2023/05/18 17:02:35;;;;;;;;;;;;;;;;;;5090818;28;19962;-68
2023/05/18 17:05:27;;;;;;;;;;;;;;;;;;5152491;27;19916;-67
2023/05/18 17:07:53;;;;;;;;;;;;;;;;;;5152509;27;19912;-68
2023/05/18 17:11:40;;;;;;;;;;;;;;;;;;5100214;27;2090361;-68
2023/05/18 17:14:06;;;;;;;;;;;;;;;;;;5173188;27;20251;-68
2023/05/18 17:16:38;;;;;;;;;;;;;;;;;;5173780;27;19911;-69
2023/05/18 17:19:04;;;;;;;;;;;;;;;;;;5173694;27;19993;-68
2023/05/18 17:21:30;;;;;;;;;;;;;;;;;;5173081;27;19914;-68
2023/05/18 17:27:51;;;;;;;;;;;;;;;;;;5111364;27;19912;-69
2023/05/18 17:30:53;;;;;;;;;;;;;;;;;;5110899;27;19912;-68
2023/05/18 17:33:19;;;;;;;;;;;;;;;;;;5111653;28;19965;-67
2023/05/18 17:37:02;;;;;;;;;;;;;;;;;;5173898;27;19919;-67
2023/05/18 17:39:55;;;;;;;;;;;;;;;;;;5091412;28;19923;-67
2023/05/18 17:44:15;;;;;;;;;;;;;;;;;;5091233;28;19922;-68
2023/05/18 17:48:28;;;;;;;;;;;;;;;;;;5091270;27;19917;-68
2023/05/18 17:51:24;;;;;;;;;;;;;;;;;;5091565;27;19916;-68
2023/05/18 17:56:57;;;;;;;;;;;;;;;;;;5111628;27;19919;-68
2023/05/18 18:02:33;;;;;;;;;;;;;;;;;;5152954;27;20275;-69
2023/05/18 18:04:59;;;;;;;;;;;;;;;;;;5152594;27;19911;-68
2023/05/18 18:10:35;;;;;;;;;;;;;;;;;;5091266;27;20371;-68
2023/05/18 18:13:01;;;;;;;;;;;;;;;;;;5089928;28;20003;-68
2023/05/18 18:15:27;;;;;;;;;;;;;;;;;;5091167;28;20327;-68
2023/05/18 18:18:15;;;;;;;;;;;;;;;;;;5111287;27;19916;-67
2023/05/18 18:20:41;;;;;;;;;;;;;;;;;;5111758;28;19912;-68
2023/05/18 18:23:07;;;;;;;;;;;;;;;;;;5111510;28;19916;-69
2023/05/18 18:25:33;;;;;;;;;;;;;;;;;;5111129;28;19908;-69
2023/05/18 18:29:40;;;;;;;;;;;;;;;;;;5152988;27;19912;-69
2023/05/18 18:32:07;;;;;;;;;;;;;;;;;;5152566;27;19955;-69
2023/05/18 18:34:33;;;;;;;;;;;;;;;;;;5152925;27;19908;-68
2023/05/18 18:36:59;;;;;;;;;;;;;;;;;;5152731;27;19911;-69
2023/05/18 18:39:25;;;;;;;;;;;;;;;;;;5152344;27;19907;-68
2023/05/18 18:48:21;;;;;;;;;;;;;;;;;;5152912;27;19918;-69
2023/05/18 18:50:47;;;;;;;;;;;;;;;;;;5152845;27;19911;-68
2023/05/18 18:53:13;;;;;;;;;;;;;;;;;;5152390;27;19968;-68
2023/05/18 18:55:39;;;;;;;;;;;;;;;;;;5152676;27;19972;-68
2023/05/18 18:58:05;;;;;;;;;;;;;;;;;;5152645;27;20275;-67
2023/05/18 19:00:30;;;;;;;;;;;;;;;;;;5152222;27;20339;-67
2023/05/18 19:02:56;;;;;;;;;;;;;;;;;;5152560;27;19907;-67
2023/05/18 19:06:30;;;;;;;;;;;;;;;;;;5111533;27;19916;-67
2023/05/18 19:08:56;;;;;;;;;;;;;;;;;;5111660;28;20275;-67
2023/05/18 19:11:47;;;;;;;;;;;;;;;;;;5153246;27;20018;-69
2023/05/18 19:14:13;;;;;;;;;;;;;;;;;;5134044;27;20391;-68
2023/05/18 19:16:39;;;;;;;;;;;;;;;;;;5152905;27;19907;-67
2023/05/18 19:19:07;;;;;;;;;;;;;;;;;;5152733;27;19907;-67
2023/05/18 19:22:15;;;;;;;;;;;;;;;;;;5099602;27;2097651;-68
2023/05/18 19:24:41;;;;;;;;;;;;;;;;;;5173731;27;19911;-67
2023/05/18 19:27:07;;;;;;;;;;;;;;;;;;5173250;27;19911;-68
2023/05/18 19:33:14;;;;;;;;;;;;;;;;;;5089284;27;19916;-68
2023/05/18 19:37:55;;;;;;;;;;;;;;;;;;5110888;27;19922;-67
2023/05/18 19:40:21;;;;;;;;;;;;;;;;;;5110409;28;19912;-68
2023/05/18 19:44:20;;;;;;;;;;;;;;;;;;5071680;28;20394;-68
2023/05/18 19:50:07;;;;;;;;;;;;;;;;;;5111017;27;19920;-69
2023/05/18 19:54:15;;;;;;;;;;;;;;;;;;5091036;27;19922;-67
2023/05/18 19:56:41;;;;;;;;;;;;;;;;;;5090736;28;20011;-68
2023/05/18 19:59:07;;;;;;;;;;;;;;;;;;5091136;28;19913;-67
2023/05/18 20:08:11;;;;;;;;;;;;;;;;;;5112043;27;19916;-69
2023/05/18 20:12:31;;;;;;;;;;;;;;;;;;5111914;27;19912;-67
2023/05/18 20:15:55;;;;;;;;;;;;;;;;;;5173889;27;19911;-70
2023/05/18 20:21:23;;;;;;;;;;;;;;;;;;5153136;27;19937;-67
2023/05/18 20:23:49;;;;;;;;;;;;;;;;;;5152486;27;19915;-68
2023/05/18 20:28:17;;;;;;;;;;;;;;;;;;5132708;27;20288;-67
2023/05/18 20:30:43;;;;;;;;;;;;;;;;;;5131789;28;20446;-68
2023/05/18 20:34:46;;;;;;;;;;;;;;;;;;5112112;27;19916;-67
2023/05/18 20:37:12;;;;;;;;;;;;;;;;;;5111708;28;20012;-69
2023/05/18 20:39:39;;;;;;;;;;;;;;;;;;5111258;28;19915;-67
2023/05/18 20:44:21;;;;;;;;;;;;;;;;;;5091641;27;20296;-67
2023/05/18 20:49:32;;;;;;;;;;;;;;;;;;5092029;27;19939;-67
2023/05/18 20:51:58;;;;;;;;;;;;;;;;;;5091063;28;20332;-68
2023/05/18 20:54:23;;;;;;;;;;;;;;;;;;5090072;28;19948;-68
2023/05/18 20:56:50;;;;;;;;;;;;;;;;;;5091392;28;19954;-68
2023/05/18 21:02:05;;;;;;;;;;;;;;;;;;5092150;28;19916;-68
2023/05/18 21:04:31;;;;;;;;;;;;;;;;;;5090079;28;19955;-67
2023/05/18 21:10:40;;;;;;;;;;;;;;;;;;5112632;27;19913;-68
2023/05/18 21:13:06;;;;;;;;;;;;;;;;;;5111355;28;19951;-68
2023/05/18 21:15:35;;;;;;;;;;;;;;;;;;5111710;28;19956;-68
2023/05/18 21:18:01;;;;;;;;;;;;;;;;;;5111844;28;19908;-68
2023/05/18 21:20:27;;;;;;;;;;;;;;;;;;5111149;28;20039;-68
2023/05/18 21:22:53;;;;;;;;;;;;;;;;;;5111511;28;20261;-68
2023/05/18 21:26:21;;;;;;;;;;;;;;;;;;5112359;27;19916;-68
2023/05/18 21:28:47;;;;;;;;;;;;;;;;;;5110083;28;20435;-68
2023/05/18 21:31:13;;;;;;;;;;;;;;;;;;5111624;28;19915;-68
2023/05/18 21:33:40;;;;;;;;;;;;;;;;;;5111162;28;19912;-68
2023/05/18 21:39:30;;;;;;;;;;;;;;;;;;5091683;27;19916;-68
2023/05/18 21:41:56;;;;;;;;;;;;;;;;;;5090926;28;20003;-69
2023/05/18 21:45:17;;;;;;;;;;;;;;;;;;5071562;28;19917;-68
2023/05/18 21:47:43;;;;;;;;;;;;;;;;;;5071016;28;19923;-68
2023/05/18 21:50:09;;;;;;;;;;;;;;;;;;5069846;28;19909;-68
2023/05/18 21:52:35;;;;;;;;;;;;;;;;;;5071188;28;19916;-69
2023/05/18 21:55:00;;;;;;;;;;;;;;;;;;5070642;28;20486;-68
2023/05/18 21:57:26;;;;;;;;;;;;;;;;;;5069730;28;19974;-68
2023/05/18 21:59:52;;;;;;;;;;;;;;;;;;5069662;28;20284;-67
2023/05/18 22:02:18;;;;;;;;;;;;;;;;;;5070457;28;20293;-67
2023/05/18 22:05:33;;;;;;;;;;;;;;;;;;5092068;27;19923;-67
2023/05/18 22:07:59;;;;;;;;;;;;;;;;;;5091357;28;19912;-68
2023/05/18 22:10:25;;;;;;;;;;;;;;;;;;5090967;28;19915;-68
2023/05/18 22:12:51;;;;;;;;;;;;;;;;;;5091287;28;20007;-69
2023/05/18 22:15:20;;;;;;;;;;;;;;;;;;5091469;28;19915;-68
2023/05/18 22:17:46;;;;;;;;;;;;;;;;;;5089481;28;20376;-69
2023/05/18 22:20:12;;;;;;;;;;;;;;;;;;5091123;28;19951;-69
2023/05/18 22:22:39;;;;;;;;;;;;;;;;;;5091042;28;19916;-69
2023/05/18 22:25:53;;;;;;;;;;;;;;;;;;5091503;27;19913;-68
2023/05/18 22:28:20;;;;;;;;;;;;;;;;;;5091323;28;19913;-67
2023/05/18 22:30:46;;;;;;;;;;;;;;;;;;5089550;28;19908;-67
2023/05/18 22:33:12;;;;;;;;;;;;;;;;;;5091178;28;19909;-67
2023/05/18 22:36:46;;;;;;;;;;;;;;;;;;5153100;27;20014;-67
2023/05/18 22:39:15;;;;;;;;;;;;;;;;;;5152475;27;19953;-67
2023/05/18 22:41:43;;;;;;;;;;;;;;;;;;5152770;27;19907;-67
2023/05/18 22:46:42;;;;;;;;;;;;;;;;;;5174379;27;19922;-67
2023/05/18 22:49:09;;;;;;;;;;;;;;;;;;5173736;27;20378;-67
2023/05/18 22:51:35;;;;;;;;;;;;;;;;;;5173260;27;19959;-67
2023/05/18 22:54:01;;;;;;;;;;;;;;;;;;5154922;27;19914;-67
2023/05/18 22:56:27;;;;;;;;;;;;;;;;;;5173564;27;20005;-67
2023/05/18 22:58:53;;;;;;;;;;;;;;;;;;5173128;27;20047;-67
2023/05/18 23:01:19;;;;;;;;;;;;;;;;;;5154740;27;19911;-67
2023/05/18 23:04:12;;;;;;;;;;;;;;;;;;5152941;27;19911;-67
2023/05/18 23:06:40;;;;;;;;;;;;;;;;;;5152411;27;19911;-67
2023/05/18 23:09:05;;;;;;;;;;;;;;;;;;5152789;27;19918;-68
2023/05/18 23:11:33;;;;;;;;;;;;;;;;;;5152787;27;19994;-68
2023/05/18 23:14:01;;;;;;;;;;;;;;;;;;5152363;27;19908;-68
2023/05/18 23:16:27;;;;;;;;;;;;;;;;;;5152686;27;19952;-68
2023/05/18 23:18:53;;;;;;;;;;;;;;;;;;5152631;27;19907;-67
2023/05/18 23:21:20;;;;;;;;;;;;;;;;;;5152167;27;19907;-68
2023/05/18 23:23:46;;;;;;;;;;;;;;;;;;5152755;27;19999;-68
2023/05/18 23:26:12;;;;;;;;;;;;;;;;;;5152079;27;19994;-67
2023/05/18 23:28:38;;;;;;;;;;;;;;;;;;5152473;27;20381;-68